createdAt,value
2022-11-24T00:01:17.833Z,5.84
2022-11-24T00:03:47.215Z,5.88
2022-11-24T00:06:15.641Z,5.78
2022-11-24T00:08:44.646Z,6.09
2022-11-24T00:11:17.921Z,7.15
2022-11-24T00:13:45.755Z,6.77
2022-11-24T00:16:15.881Z,7.54
2022-11-24T00:18:44.994Z,8.07
2022-11-24T00:21:13.596Z,7.92
2022-11-24T00:23:41.366Z,7.36
2022-11-24T00:26:11.311Z,6.19
2022-11-24T00:28:40.122Z,6.34
2022-11-24T00:31:21.749Z,7.76
2022-11-24T00:33:51.363Z,6.71
2022-11-24T00:36:22.377Z,7.80
2022-11-24T00:38:57.757Z,8.23
2022-11-24T00:41:26.153Z,8.06
2022-11-24T00:43:54.317Z,8.45
2022-11-24T00:46:22.041Z,8.21
2022-11-24T00:48:49.462Z,6.95
2022-11-24T00:51:18.594Z,6.48
2022-11-24T00:53:46.185Z,7.50
2022-11-24T00:56:14.025Z,8.15
2022-11-24T00:58:41.695Z,6.35
2022-11-24T01:01:12.649Z,7.50
2022-11-24T01:03:40.374Z,6.61
2022-11-24T01:06:12.055Z,5.75
2022-11-24T01:08:40.279Z,6.87
2022-11-24T01:11:20.718Z,6.24
2022-11-24T01:13:51.909Z,5.82
2022-11-24T01:16:22.593Z,6.59
2022-11-24T01:18:50.259Z,5.66
2022-11-24T01:21:18.160Z,5.26
2022-11-24T01:23:46.195Z,5.44
2022-11-24T01:26:16.268Z,6.61
2022-11-24T01:28:47.406Z,5.80
2022-11-24T01:31:15.669Z,5.51
2022-11-24T01:33:43.272Z,5.91
2022-11-24T01:36:10.683Z,6.23
2022-11-24T01:38:38.389Z,6.82
2022-11-24T01:41:17.933Z,6.23
2022-11-24T01:43:46.420Z,6.38
2022-11-24T01:46:28.006Z,6.38
2022-11-24T01:49:18.167Z,6.07
2022-11-24T01:52:01.363Z,6.40
2022-11-24T01:54:32.411Z,5.84
2022-11-24T01:57:09.761Z,5.46
2022-11-24T01:59:37.619Z,5.72
2022-11-24T02:02:05.101Z,6.62
2022-11-24T02:04:34.451Z,6.82
2022-11-24T02:07:03.638Z,5.80
2022-11-24T02:09:36.437Z,5.66
2022-11-24T02:12:04.916Z,6.80
2022-11-24T02:14:35.871Z,6.37
2022-11-24T02:17:03.932Z,6.30
2022-11-24T02:19:40.308Z,6.21
2022-11-24T02:22:13.373Z,6.13
2022-11-24T02:24:50.926Z,6.24
2022-11-24T02:27:19.359Z,6.32
2022-11-24T02:29:46.795Z,6.28
2022-11-24T02:32:14.442Z,6.37
2022-11-24T02:34:42.139Z,6.25
2022-11-24T02:37:09.509Z,6.44
2022-11-24T02:39:37.934Z,6.55
2022-11-24T02:42:08.931Z,6.66
2022-11-24T02:44:39.914Z,6.35
2022-11-24T02:47:10.416Z,6.35
2022-11-24T02:49:37.990Z,6.08
2022-11-24T02:52:05.987Z,5.60
2022-11-24T02:54:33.951Z,5.81
2022-11-24T02:57:01.538Z,5.79
2022-11-24T02:59:28.881Z,5.70
2022-11-24T03:01:56.516Z,6.24
2022-11-24T03:04:23.916Z,6.04
2022-11-24T03:06:51.537Z,6.18
2022-11-24T03:09:19.167Z,6.10
2022-11-24T03:11:46.618Z,6.17
2022-11-24T03:14:13.964Z,5.76
2022-11-24T03:16:41.566Z,6.17
2022-11-24T03:19:08.950Z,5.88
2022-11-24T03:21:36.713Z,6.16
2022-11-24T03:24:04.645Z,6.17
2022-11-24T03:26:34.158Z,6.20
2022-11-24T03:29:02.040Z,6.08
2022-11-24T03:31:29.814Z,6.02
2022-11-24T03:33:57.239Z,5.78
2022-11-24T03:36:24.721Z,6.05
2022-11-24T03:38:52.515Z,6.24
2022-11-24T03:41:19.869Z,6.27
2022-11-24T03:43:47.271Z,6.08
2022-11-24T03:46:14.993Z,6.00
2022-11-24T03:48:42.403Z,6.15
2022-11-24T03:51:10.314Z,5.95
2022-11-24T03:53:37.962Z,5.34
2022-11-24T03:56:05.378Z,5.71
2022-11-24T03:58:32.804Z,5.59
2022-11-24T04:01:00.415Z,5.45
2022-11-24T04:03:28.099Z,5.54
2022-11-24T04:05:55.488Z,5.48
2022-11-24T04:08:22.948Z,5.58
2022-11-24T04:10:52.452Z,5.45
2022-11-24T04:13:22.427Z,5.49
2022-11-24T04:15:50.088Z,5.03
2022-11-24T04:18:18.213Z,5.14
2022-11-24T04:20:45.858Z,5.22
2022-11-24T04:23:13.303Z,5.07
2022-11-24T04:25:43.469Z,5.07
2022-11-24T04:28:11.267Z,4.91
2022-11-24T04:30:40.493Z,5.08
2022-11-24T04:33:08.117Z,4.90
2022-11-24T04:35:35.514Z,4.99
2022-11-24T04:38:03.103Z,4.74
2022-11-24T04:40:30.749Z,4.86
2022-11-24T04:42:58.127Z,4.72
2022-11-24T04:45:25.460Z,4.66
2022-11-24T04:47:53.096Z,4.61
2022-11-24T04:50:20.830Z,4.82
2022-11-24T04:52:48.264Z,4.55
2022-11-24T04:55:15.934Z,4.69
2022-11-24T04:57:43.316Z,4.61
2022-11-24T05:00:11.563Z,4.49
2022-11-24T05:02:39.354Z,4.53
2022-11-24T05:05:07.371Z,4.66
2022-11-24T05:07:35.022Z,4.80
2022-11-24T05:10:21.439Z,4.76
2022-11-24T05:12:56.565Z,4.91
2022-11-24T05:15:24.206Z,4.74
2022-11-24T05:17:51.877Z,4.93
2022-11-24T05:20:19.763Z,4.97
2022-11-24T05:22:47.451Z,5.02
2022-11-24T05:25:14.831Z,5.22
2022-11-24T05:27:42.211Z,5.35
2022-11-24T05:30:10.347Z,5.15
2022-11-24T05:32:37.667Z,5.79
2022-11-24T05:35:05.448Z,5.65
2022-11-24T05:37:33.088Z,5.67
2022-11-24T05:40:00.416Z,6.04
2022-11-24T05:42:47.181Z,6.06
2022-11-24T05:45:17.999Z,6.23
2022-11-24T05:47:46.167Z,5.87
2022-11-24T05:50:15.218Z,5.75
2022-11-24T05:52:43.204Z,6.19
2022-11-24T05:55:11.104Z,6.24
2022-11-24T05:57:38.419Z,6.04
2022-11-24T06:00:07.196Z,6.07
2022-11-24T06:02:39.839Z,5.97
2022-11-24T06:05:07.822Z,5.93
2022-11-24T06:07:35.199Z,6.17
2022-11-24T06:10:02.750Z,5.99
2022-11-24T06:12:30.382Z,5.78
2022-11-24T06:14:57.758Z,5.99
2022-11-24T06:17:25.425Z,5.47
2022-11-24T06:19:53.081Z,5.71
2022-11-24T06:22:20.470Z,5.36
2022-11-24T06:24:47.853Z,5.68
2022-11-24T06:27:15.420Z,5.79
2022-11-24T06:29:42.951Z,5.90
2022-11-24T06:32:10.249Z,5.89
2022-11-24T06:34:37.903Z,5.62
2022-11-24T06:37:05.241Z,5.81
2022-11-24T06:39:32.792Z,6.10
2022-11-24T06:42:00.447Z,5.81
2022-11-24T06:44:27.795Z,5.77
2022-11-24T06:46:55.301Z,5.51
2022-11-24T06:49:23.284Z,5.36
2022-11-24T06:51:50.815Z,5.42
2022-11-24T06:54:21.138Z,5.15
2022-11-24T06:56:48.794Z,5.23
2022-11-24T06:59:18.674Z,5.36
2022-11-24T07:01:47.605Z,5.48
2022-11-24T07:04:15.554Z,5.44
2022-11-24T07:06:43.601Z,5.35
2022-11-24T07:09:12.110Z,5.23
2022-11-24T07:11:40.182Z,5.44
2022-11-24T07:14:07.640Z,5.54
2022-11-24T07:16:35.797Z,5.62
2022-11-24T07:19:03.619Z,5.59
2022-11-24T07:21:31.026Z,5.87
2022-11-24T07:23:58.829Z,5.60
2022-11-24T07:26:26.669Z,5.86
2022-11-24T07:28:54.148Z,5.69
2022-11-24T07:31:25.061Z,5.86
2022-11-24T07:33:54.509Z,6.00
2022-11-24T07:36:22.809Z,6.12
2022-11-24T07:38:50.211Z,6.28
2022-11-24T07:41:22.175Z,6.52
2022-11-24T07:43:50.655Z,6.35
2022-11-24T07:46:19.544Z,5.71
2022-11-24T07:48:47.302Z,6.52
2022-11-24T07:51:15.644Z,6.60
2022-11-24T07:53:43.833Z,6.45
2022-11-24T07:56:13.227Z,6.07
2022-11-24T07:58:40.612Z,5.30
2022-11-24T08:01:16.557Z,6.08
2022-11-24T08:03:45.201Z,6.46
2022-11-24T08:06:35.379Z,6.20
2022-11-24T08:09:00.682Z,6.21
2022-11-24T08:11:28.426Z,6.17
2022-11-24T08:13:55.801Z,6.36
2022-11-24T08:16:23.679Z,6.10
2022-11-24T08:18:54.085Z,6.06
2022-11-24T08:21:23.443Z,6.04
2022-11-24T08:23:56.067Z,6.10
2022-11-24T08:26:24.978Z,6.38
2022-11-24T08:28:55.248Z,6.55
2022-11-24T08:31:22.929Z,6.39
2022-11-24T08:33:50.340Z,6.45
2022-11-24T08:36:19.058Z,5.89
2022-11-24T08:38:46.597Z,6.59
2022-11-24T08:41:15.452Z,6.20
2022-11-24T08:43:43.189Z,6.13
2022-11-24T08:46:13.247Z,6.07
2022-11-24T08:48:41.582Z,6.21
2022-11-24T08:51:15.500Z,6.15
2022-11-24T08:53:43.479Z,6.24
2022-11-24T08:56:12.098Z,6.16
2022-11-24T08:58:40.134Z,6.22
2022-11-24T09:01:15.471Z,6.36
2022-11-24T09:03:50.098Z,6.09
2022-11-24T09:06:19.464Z,6.18
2022-11-24T09:08:47.082Z,5.96
2022-11-24T09:11:16.533Z,6.42
2022-11-24T09:13:44.153Z,6.56
2022-11-24T09:16:17.271Z,6.53
2022-11-24T09:18:45.761Z,6.76
2022-11-24T09:21:18.912Z,6.60
2022-11-24T09:23:50.687Z,6.97
2022-11-24T09:26:19.580Z,7.04
2022-11-24T09:28:47.210Z,6.72
2022-11-24T09:31:17.149Z,6.95
2022-11-24T09:33:45.541Z,7.12
2022-11-24T09:36:13.513Z,7.17
2022-11-24T09:38:41.056Z,6.84
2022-11-24T09:41:17.530Z,6.87
2022-11-24T09:44:09.294Z,6.79
2022-11-24T09:46:55.804Z,6.78
2022-11-24T09:49:51.503Z,6.65
2022-11-24T09:52:26.611Z,6.65
2022-11-24T09:54:58.921Z,6.42
2022-11-24T09:57:31.473Z,6.55
2022-11-24T10:00:10.066Z,6.65
2022-11-24T10:02:39.339Z,6.93
2022-11-24T10:05:07.392Z,6.67
2022-11-24T10:07:43.966Z,7.32
2022-11-24T10:10:15.760Z,7.63
2022-11-24T10:12:54.047Z,7.53
2022-11-24T10:15:51.766Z,7.23
2022-11-24T10:18:27.917Z,6.73
2022-11-24T10:21:30.971Z,6.94
2022-11-24T10:24:12.605Z,7.18
2022-11-24T10:26:45.645Z,7.19
2022-11-24T10:29:13.736Z,6.81
2022-11-24T10:31:43.222Z,6.63
2022-11-24T10:34:14.585Z,7.02
2022-11-24T10:36:54.435Z,6.95
2022-11-24T10:39:37.005Z,6.84
2022-11-24T10:42:14.505Z,6.83
2022-11-24T10:44:42.247Z,6.94
2022-11-24T10:47:19.088Z,7.12
2022-11-24T10:49:56.925Z,7.11
2022-11-24T10:52:25.657Z,6.97
2022-11-24T10:54:58.653Z,6.91
2022-11-24T10:57:32.291Z,7.08
2022-11-24T11:00:00.553Z,6.95
2022-11-24T11:02:32.366Z,7.12
2022-11-24T11:05:31.583Z,7.77
2022-11-24T11:08:14.560Z,7.49
2022-11-24T11:10:43.422Z,7.42
2022-11-24T11:13:23.341Z,6.91
2022-11-24T11:15:51.459Z,6.64
2022-11-24T11:18:19.992Z,7.47
2022-11-24T11:20:55.047Z,7.47
2022-11-24T11:23:26.951Z,7.38
2022-11-24T11:26:22.601Z,7.35
2022-11-24T11:35:12.075Z,7.76
2022-11-24T11:37:39.397Z,7.91
2022-11-24T11:40:14.340Z,7.70
2022-11-24T11:43:01.844Z,7.88
2022-11-24T11:45:38.182Z,7.62
2022-11-24T11:48:26.996Z,8.14
2022-11-24T11:51:22.268Z,8.41
2022-11-24T11:54:06.781Z,7.49
2022-11-24T11:57:06.636Z,7.53
2022-11-24T11:59:55.030Z,7.71
2022-11-24T12:02:59.570Z,7.75
2022-11-24T12:05:33.194Z,7.79
2022-11-24T12:08:21.494Z,7.89
2022-11-24T12:10:57.342Z,7.89
2022-11-24T12:13:43.373Z,7.65
2022-11-24T12:16:48.051Z,7.63
2022-11-24T12:19:48.656Z,7.75
2022-11-24T12:22:42.655Z,7.62
2022-11-24T12:25:26.591Z,7.52
2022-11-24T12:28:06.859Z,7.72
2022-11-24T12:31:08.993Z,7.63
2022-11-24T12:33:50.925Z,7.84
2022-11-24T12:36:41.566Z,8.10
2022-11-24T12:39:19.686Z,8.02
2022-11-24T12:41:54.772Z,7.95
2022-11-24T12:44:47.224Z,8.18
2022-11-24T12:47:33.242Z,8.27
2022-11-24T12:50:13.352Z,7.79
2022-11-24T12:52:46.042Z,8.03
2022-11-24T12:55:18.983Z,8.48
2022-11-24T12:57:56.175Z,8.25
2022-11-24T13:00:31.425Z,8.33
2022-11-24T13:03:17.526Z,7.99
2022-11-24T13:05:51.629Z,8.21
2022-11-24T13:08:19.401Z,8.25
2022-11-24T13:14:02.435Z,7.88
2022-11-24T13:16:48.728Z,8.12
2022-11-24T13:19:21.061Z,8.15
2022-11-24T13:21:56.828Z,8.14
2022-11-24T13:24:30.873Z,8.03
2022-11-24T13:27:14.203Z,7.94
2022-11-24T13:29:46.062Z,7.70
2022-11-24T13:32:17.657Z,8.19
2022-11-24T13:34:49.875Z,8.44
2022-11-24T13:37:33.550Z,8.00
2022-11-24T13:40:12.393Z,8.23
2022-11-24T13:42:58.820Z,8.35
2022-11-24T13:45:49.608Z,8.04
2022-11-24T13:48:20.493Z,8.18
2022-11-24T13:50:51.094Z,8.36
2022-11-24T13:53:34.886Z,8.30
2022-11-24T13:56:15.084Z,8.12
2022-11-24T13:58:47.440Z,8.17
2022-11-24T14:01:16.392Z,8.25
2022-11-24T14:04:21.609Z,8.01
2022-11-24T14:06:48.493Z,7.53
2022-11-24T14:09:47.963Z,8.33
2022-11-24T14:12:20.969Z,8.40
2022-11-24T14:14:50.304Z,8.53
2022-11-24T14:17:23.179Z,8.12
2022-11-24T14:19:52.800Z,8.57
2022-11-24T14:22:24.443Z,8.20
2022-11-24T14:24:56.555Z,8.07
2022-11-24T14:27:30.618Z,8.26
2022-11-24T14:30:03.825Z,8.41
2022-11-24T14:32:31.600Z,8.11
2022-11-24T14:34:59.464Z,8.05
2022-11-24T14:37:26.930Z,7.98
2022-11-24T14:39:54.303Z,7.86
2022-11-24T14:42:24.328Z,8.19
2022-11-24T14:44:51.765Z,8.11
2022-11-24T14:47:30.218Z,7.84
2022-11-24T14:50:08.061Z,7.99
2022-11-24T14:52:35.828Z,8.02
2022-11-24T14:55:21.946Z,7.98
2022-11-24T14:57:52.741Z,7.86
2022-11-24T15:00:29.871Z,8.18
2022-11-24T15:03:17.146Z,8.45
2022-11-24T15:05:59.259Z,8.12
2022-11-24T15:08:28.484Z,7.86
2022-11-24T15:11:01.196Z,7.88
2022-11-24T15:13:32.827Z,7.91
2022-11-24T15:16:08.317Z,8.02
2022-11-24T15:18:39.572Z,8.19
2022-11-24T15:21:07.865Z,8.00
2022-11-24T15:23:36.459Z,8.02
2022-11-24T15:26:03.838Z,8.21
2022-11-24T15:28:31.661Z,8.16
2022-11-24T15:31:04.604Z,8.01
2022-11-24T15:33:32.698Z,7.91
2022-11-24T15:36:00.067Z,7.60
2022-11-24T15:38:27.470Z,8.11
2022-11-24T15:40:57.890Z,8.33
2022-11-24T15:43:44.583Z,8.35
2022-11-24T15:46:12.651Z,8.04
2022-11-24T15:48:40.002Z,8.16
2022-11-24T15:51:11.953Z,7.95
2022-11-24T15:53:42.303Z,7.65
2022-11-24T15:56:16.015Z,7.64
2022-11-24T15:58:43.609Z,7.66
2022-11-24T16:01:10.940Z,7.75
2022-11-24T16:03:47.150Z,7.39
2022-11-24T16:06:24.115Z,7.56
2022-11-24T16:08:53.985Z,7.43
2022-11-24T16:11:21.874Z,7.07
2022-11-24T16:13:53.080Z,7.11
2022-11-24T16:16:22.954Z,6.54
2022-11-24T16:18:50.761Z,6.86
2022-11-24T16:21:18.198Z,7.06
2022-11-24T16:23:46.563Z,6.79
2022-11-24T16:26:13.902Z,6.46
2022-11-24T16:28:42.312Z,6.12
2022-11-24T16:31:10.043Z,5.64
2022-11-24T16:33:40.668Z,5.65
2022-11-24T16:36:08.903Z,5.43
2022-11-24T16:38:36.682Z,5.90
2022-11-24T16:41:04.356Z,6.01
2022-11-24T16:43:32.181Z,5.38
2022-11-24T16:46:09.075Z,5.54
2022-11-24T16:48:37.144Z,5.56
2022-11-24T16:51:06.761Z,5.42
2022-11-24T16:53:34.148Z,5.87
2022-11-24T16:56:01.808Z,5.81
2022-11-24T16:58:30.104Z,6.05
2022-11-24T17:01:05.381Z,6.30
2022-11-24T17:03:33.866Z,5.75
2022-11-24T17:06:01.273Z,6.18
2022-11-24T17:08:36.184Z,6.05
2022-11-24T17:11:14.896Z,6.07
2022-11-24T17:13:42.655Z,6.93
2022-11-24T17:16:13.681Z,6.37
2022-11-24T17:18:41.847Z,6.91
2022-11-24T17:21:18.712Z,6.57
2022-11-24T17:23:49.137Z,6.98
2022-11-24T17:26:17.513Z,6.81
2022-11-24T17:28:45.097Z,6.79
2022-11-24T17:31:26.044Z,7.11
2022-11-24T17:33:56.467Z,6.35
2022-11-24T17:36:24.581Z,6.29
2022-11-24T17:38:52.599Z,6.20
2022-11-24T17:41:20.782Z,6.30
2022-11-24T17:43:50.601Z,5.38
2022-11-24T17:46:18.836Z,5.86
2022-11-24T17:48:47.342Z,6.55
2022-11-24T17:51:17.904Z,6.29
2022-11-24T17:53:47.318Z,6.58
2022-11-24T17:56:17.387Z,6.78
2022-11-24T17:58:45.100Z,6.54
2022-11-24T18:01:13.715Z,6.52
2022-11-24T18:03:41.948Z,5.96
2022-11-24T18:06:12.037Z,6.36
2022-11-24T18:08:41.398Z,6.19
2022-11-24T18:11:22.680Z,6.50
2022-11-24T18:14:01.224Z,6.52
2022-11-24T18:16:31.454Z,6.90
2022-11-24T18:19:10.744Z,6.92
2022-11-24T18:21:40.941Z,6.87
2022-11-24T18:24:10.336Z,7.34
2022-11-24T18:26:39.140Z,6.78
2022-11-24T18:29:08.184Z,6.34
2022-11-24T18:31:36.191Z,7.19
2022-11-24T18:34:05.691Z,7.15
2022-11-24T18:36:37.743Z,7.40
2022-11-24T18:39:07.581Z,7.24
2022-11-24T18:41:35.858Z,7.07
2022-11-24T18:44:07.747Z,7.17
2022-11-24T18:46:36.494Z,6.85
2022-11-24T18:49:04.797Z,6.99
2022-11-24T18:51:32.893Z,6.73
2022-11-24T18:54:04.225Z,6.66
2022-11-24T18:56:34.741Z,6.93
2022-11-24T18:59:04.186Z,6.53
2022-11-24T19:01:32.362Z,7.25
2022-11-24T19:04:02.097Z,5.85
2022-11-24T19:06:35.351Z,5.88
2022-11-24T19:09:08.709Z,6.35
2022-11-24T19:11:38.704Z,7.03
2022-11-24T19:14:09.130Z,6.77
2022-11-24T19:16:38.127Z,6.90
2022-11-24T19:19:06.400Z,6.64
2022-11-24T19:21:37.691Z,6.03
2022-11-24T19:24:07.276Z,5.78
2022-11-24T19:26:35.457Z,5.79
2022-11-24T19:29:04.577Z,5.82
2022-11-24T19:31:33.853Z,5.83
2022-11-24T19:34:03.120Z,5.89
2022-11-24T19:36:30.856Z,5.21
2022-11-24T19:39:00.292Z,5.48
2022-11-24T19:41:30.214Z,5.34
2022-11-24T19:43:59.140Z,5.56
2022-11-24T19:46:29.541Z,6.27
2022-11-24T19:49:00.242Z,5.41
2022-11-24T19:51:34.005Z,5.80
2022-11-24T19:54:03.180Z,6.09
2022-11-24T19:56:35.687Z,5.69
2022-11-24T19:59:05.697Z,6.08
2022-11-24T20:01:41.689Z,6.66
2022-11-24T20:04:12.714Z,6.69
2022-11-24T20:06:42.623Z,6.72
2022-11-24T20:09:15.894Z,7.02
2022-11-24T20:11:44.409Z,6.98
2022-11-24T20:14:14.582Z,7.20
2022-11-24T20:16:42.728Z,7.19
2022-11-24T20:19:13.398Z,6.91
2022-11-24T20:21:47.040Z,7.12
2022-11-24T20:24:16.653Z,6.69
2022-11-24T20:26:50.740Z,6.69
2022-11-24T20:29:19.358Z,6.68
2022-11-24T20:31:49.821Z,6.47
2022-11-24T20:34:23.896Z,6.27
2022-11-24T20:36:53.491Z,6.57
2022-11-24T20:39:26.284Z,7.14
2022-11-24T20:41:56.054Z,6.72
2022-11-24T20:44:25.325Z,6.75
2022-11-24T20:46:56.226Z,7.24
2022-11-24T20:49:25.452Z,7.35
2022-11-24T20:51:55.363Z,6.88
2022-11-24T20:54:23.873Z,6.88
2022-11-24T20:56:51.846Z,6.89
2022-11-24T20:59:22.252Z,6.70
2022-11-24T21:01:51.518Z,6.98
2022-11-24T21:04:25.762Z,6.55
2022-11-24T21:06:53.357Z,6.11
2022-11-24T21:09:21.759Z,6.56
2022-11-24T21:11:49.479Z,5.16
2022-11-24T21:14:16.988Z,4.90
2022-11-24T21:16:45.343Z,4.24
2022-11-24T21:19:14.977Z,4.35
2022-11-24T21:21:43.376Z,4.09
2022-11-24T21:24:16.462Z,3.96
2022-11-24T21:26:47.748Z,3.92
2022-11-24T21:29:22.371Z,3.81
2022-11-24T21:31:51.390Z,3.82
2022-11-24T21:34:19.460Z,3.85
2022-11-24T21:36:47.897Z,4.12
2022-11-24T21:39:15.831Z,4.91
2022-11-24T21:41:44.081Z,4.32
2022-11-24T21:44:13.430Z,4.40
2022-11-24T21:46:45.949Z,4.60
2022-11-24T21:49:18.652Z,4.28
2022-11-24T21:51:45.970Z,3.96
2022-11-24T21:54:13.293Z,4.02
2022-11-24T21:56:40.961Z,3.93
2022-11-24T21:59:08.618Z,4.32
2022-11-24T22:01:35.954Z,5.23
2022-11-24T22:04:03.614Z,5.26
2022-11-24T22:06:33.206Z,5.74
2022-11-24T22:09:01.728Z,5.46
2022-11-24T22:11:29.317Z,5.37
2022-11-24T22:13:56.881Z,5.14
2022-11-24T22:16:24.928Z,5.41
2022-11-24T22:18:52.804Z,5.11
2022-11-24T22:21:29.981Z,5.18
2022-11-24T22:23:57.672Z,4.83
2022-11-24T22:26:25.591Z,4.29
2022-11-24T22:28:57.076Z,4.42
2022-11-24T22:31:29.488Z,4.21
2022-11-24T22:33:57.787Z,5.01
2022-11-24T22:36:27.597Z,5.35
2022-11-24T22:38:56.198Z,4.37
2022-11-24T22:41:23.838Z,4.00
2022-11-24T22:43:51.603Z,4.38
2022-11-24T22:46:21.118Z,4.24
2022-11-24T22:48:49.922Z,4.01
2022-11-24T22:51:23.513Z,4.24
2022-11-24T22:53:53.428Z,3.65
2022-11-24T22:56:21.541Z,3.60
2022-11-24T22:58:48.956Z,3.79
2022-11-24T23:01:21.221Z,3.84
2022-11-24T23:03:49.472Z,4.78
2022-11-24T23:06:18.895Z,4.60
2022-11-24T23:08:46.657Z,4.78
2022-11-24T23:11:17.726Z,4.61
2022-11-24T23:13:45.053Z,4.52
2022-11-24T23:16:17.626Z,4.25
2022-11-24T23:18:49.878Z,5.10
2022-11-24T23:21:23.036Z,5.13
2022-11-24T23:23:51.201Z,5.96
2022-11-24T23:26:22.150Z,5.77
2022-11-24T23:28:49.515Z,5.57
2022-11-24T23:31:20.767Z,5.78
2022-11-24T23:33:48.265Z,5.45
2022-11-24T23:36:17.481Z,6.09
2022-11-24T23:38:45.449Z,5.19
2022-11-24T23:41:31.876Z,4.94
2022-11-24T23:44:00.150Z,4.95
2022-11-24T23:46:28.105Z,5.14
2022-11-24T23:48:56.332Z,5.42
2022-11-24T23:51:26.340Z,6.16
2022-11-24T23:53:54.346Z,5.85
2022-11-24T23:56:26.502Z,5.53
2022-11-24T23:58:54.241Z,5.38
